Time;durP1;ratioP1;P1;durP2;ratioP2;P2;SDS_P1;SDS_P2;PMS_P1;PMS_P2;Temp;Humidity;BMP_temperature;BMP_pressure;BME280_temperature;BME280_humidity;BME280_pressure;Samples;Min_cycle;Max_cycle;Signal;HPM_P1;HPM_P2
2023/07/25 18:20:50;;;;;;;0.30;0.30;;;26.10;64.30;;;;;;5127949;27;20119;-78
2023/07/25 18:23:18;;;;;;;0.63;0.52;;;26.10;63.10;;;;;;5108825;28;20463;-80
2023/07/25 18:25:44;;;;;;;0.52;0.52;;;26.10;63.20;;;;;;5108588;28;20020;-79
2023/07/25 18:28:11;;;;;;;0.85;0.85;;;26.00;62.50;;;;;;5109002;28;20110;-79
2023/07/25 18:30:37;;;;;;;0.75;0.50;;;26.00;63.10;;;;;;5107942;28;20488;-79
2023/07/25 18:33:03;;;;;;;0.75;0.63;;;26.10;62.80;;;;;;5108749;28;20536;-79
2023/07/25 18:35:30;;;;;;;0.38;0.38;;;26.00;62.70;;;;;;5114207;28;20096;-80
2023/07/25 18:37:59;;;;;;;0.60;0.60;;;26.00;62.60;;;;;;5108975;28;20035;-79
2023/07/25 18:40:26;;;;;;;1.02;0.80;;;26.00;62.70;;;;;;5091092;28;20132;-79
2023/07/25 18:42:52;;;;;;;0.63;0.52;;;26.00;62.60;;;;;;5108792;28;20066;-79
2023/07/25 18:45:18;;;;;;;1.35;0.50;;;26.00;61.90;;;;;;5108221;28;20048;-79
2023/07/25 18:47:44;;;;;;;1.27;0.82;;;26.00;62.40;;;;;;5108621;28;20024;-79
2023/07/25 18:50:11;;;;;;;1.08;0.73;;;26.00;62.50;;;;;;5108139;28;20040;-79
2023/07/25 18:52:37;;;;;;;0.43;0.32;;;26.00;62.80;;;;;;5108684;28;20507;-80
2023/07/25 18:55:04;;;;;;;0.40;0.40;;;26.00;62.40;;;;;;5108573;28;20090;-80
2023/07/25 18:57:30;;;;;;;0.30;0.30;;;26.00;62.30;;;;;;5108520;28;20039;-80
2023/07/25 18:59:56;;;;;;;0.20;0.20;;;25.90;61.80;;;;;;5090863;28;20040;-80
2023/07/25 19:02:22;;;;;;;0.70;0.50;;;25.90;61.80;;;;;;5109043;28;20028;-79
2023/07/25 19:04:48;;;;;;;0.47;0.45;;;25.90;61.20;;;;;;5108513;28;20048;-82
2023/07/25 19:07:15;;;;;;;2.22;1.45;;;25.90;61.90;;;;;;5090915;28;20024;-80
2023/07/25 19:09:42;;;;;;;0.98;0.52;;;25.80;62.00;;;;;;5109182;28;20115;-81
2023/07/25 19:12:08;;;;;;;0.82;0.82;;;25.70;62.30;;;;;;5090753;28;20024;-80
2023/07/25 19:14:34;;;;;;;0.50;0.50;;;25.70;62.10;;;;;;5107599;28;20115;-80
2023/07/25 19:17:00;;;;;;;0.40;0.40;;;25.60;63.20;;;;;;5110298;28;20028;-80
2023/07/25 19:19:27;;;;;;;0.57;0.57;;;25.60;63.40;;;;;;5101919;27;20064;-79
2023/07/25 19:21:53;;;;;;;0.40;0.40;;;25.50;63.50;;;;;;5091661;27;20508;-79
2023/07/25 19:24:21;;;;;;;0.85;0.65;;;25.50;63.80;;;;;;5070738;28;20471;-80
2023/07/25 19:26:47;;;;;;;0.57;0.47;;;25.40;63.90;;;;;;5085874;28;20055;-82
2023/07/25 19:29:13;;;;;;;0.30;0.30;;;25.40;64.10;;;;;;5086645;28;20051;-79
2023/07/25 19:31:39;;;;;;;1.25;0.73;;;25.40;64.40;;;;;;5082694;28;20120;-80
2023/07/25 19:34:05;;;;;;;0.82;0.82;;;25.30;64.60;;;;;;5097164;28;20036;-79
2023/07/25 19:36:31;;;;;;;0.43;0.43;;;25.30;64.60;;;;;;5093738;28;20723;-79
2023/07/25 19:38:57;;;;;;;0.70;0.63;;;25.30;64.60;;;;;;5096111;28;20037;-79
2023/07/25 19:41:23;;;;;;;1.00;0.65;;;25.30;64.60;;;;;;5107082;28;20479;-79
2023/07/25 19:43:50;;;;;;;0.90;0.63;;;25.30;64.80;;;;;;5106809;28;20035;-80
2023/07/25 19:46:16;;;;;;;0.20;0.20;;;25.20;64.70;;;;;;5106230;28;20024;-79
2023/07/25 19:48:42;;;;;;;0.45;0.45;;;25.30;64.70;;;;;;5106720;28;20069;-77
2023/07/25 19:51:27;;;;;;;3.55;0.40;;;25.30;64.80;;;;;;5094424;28;20036;-79
2023/07/25 19:53:53;;;;;;;0.50;0.50;;;25.20;65.30;;;;;;5088111;28;20059;-76
2023/07/25 19:56:19;;;;;;;0.88;0.60;;;25.10;66.30;;;;;;5086784;28;20027;-77
2023/07/25 19:58:45;;;;;;;0.80;0.47;;;25.10;67.20;;;;;;5087658;28;20086;-77
2023/07/25 20:01:13;;;;;;;0.13;0.13;;;25.00;67.60;;;;;;5086689;28;20495;-77
2023/07/25 20:03:40;;;;;;;0.45;0.40;;;24.90;67.80;;;;;;5087680;28;20068;-79
2023/07/25 20:06:08;;;;;;;1.38;0.95;;;24.80;67.50;;;;;;5069011;28;20020;-79
2023/07/25 20:08:35;;;;;;;0.38;0.35;;;24.80;68.60;;;;;;5086648;28;20115;-78
2023/07/25 20:11:03;;;;;;;0.30;0.30;;;24.80;68.50;;;;;;5100261;27;20111;-78
2023/07/25 20:13:30;;;;;;;0.40;0.40;;;24.70;68.90;;;;;;5106151;28;20095;-77
2023/07/25 20:15:57;;;;;;;1.00;1.00;;;24.70;69.20;;;;;;5105689;28;20037;-78
2023/07/25 20:18:23;;;;;;;1.50;0.50;;;24.60;69.70;;;;;;5106263;28;20046;-79
2023/07/25 20:21:13;;;;;;;0.32;0.32;;;24.50;70.00;;;;;;5105397;28;20027;-78
2023/07/25 20:23:40;;;;;;;1.13;0.93;;;24.50;70.00;;;;;;5105966;28;20518;-78
2023/07/25 20:26:07;;;;;;;0.40;0.40;;;24.40;70.70;;;;;;5086090;28;20028;-79
2023/07/25 20:28:33;;;;;;;0.20;0.20;;;24.30;70.50;;;;;;5087293;28;20062;-76
2023/07/25 20:31:00;;;;;;;0.25;0.25;;;24.30;71.60;;;;;;5084819;28;20024;-78
